Time;durP1;ratioP1;P1;durP2;ratioP2;P2;SDS_P1;SDS_P2;PMS_P1;PMS_P2;Temp;Humidity;BMP_temperature;BMP_pressure;BME280_temperature;BME280_humidity;BME280_pressure;Samples;Min_cycle;Max_cycle;Signal;HPM_P1;HPM_P2
2023/03/10 00:01:17;;;;;;;17.38;9.73;;;;;;;2.99;100.00;98877.41;5048151;28;20033;-53
2023/03/10 00:03:44;;;;;;;14.13;10.00;;;;;;;2.75;100.00;98876.47;5050795;28;20029;-57
2023/03/10 00:06:11;;;;;;;13.68;9.15;;;;;;;2.72;100.00;98876.59;5051833;28;20461;-54
2023/03/10 00:08:36;;;;;;;14.75;9.50;;;;;;;2.75;100.00;98872.13;5044278;28;20396;-55
2023/03/10 00:11:02;;;;;;;14.25;10.02;;;;;;;2.75;100.00;98873.88;5031796;28;20041;-55
2023/03/10 00:13:27;;;;;;;14.10;9.57;;;;;;;2.88;100.00;98872.56;5031009;28;20049;-55
2023/03/10 00:15:52;;;;;;;12.20;8.90;;;;;;;2.87;100.00;98865.69;5031084;28;20032;-53
2023/03/10 00:18:18;;;;;;;14.07;9.68;;;;;;;2.85;100.00;98869.22;5031176;28;20148;-55
2023/03/10 00:20:43;;;;;;;14.30;8.85;;;;;;;2.74;100.00;98870.41;5031101;28;20045;-54
2023/03/10 00:23:09;;;;;;;13.10;9.30;;;;;;;2.58;100.00;98869.22;5044038;28;20083;-53
2023/03/10 00:25:34;;;;;;;16.40;10.38;;;;;;;2.58;100.00;98869.22;5051956;28;20036;-54
2023/03/10 00:27:59;;;;;;;16.73;10.40;;;;;;;2.63;100.00;98868.19;5050928;28;20032;-55
2023/03/10 00:30:25;;;;;;;13.43;9.90;;;;;;;2.67;100.00;98862.91;5049122;28;20116;-56
2023/03/10 00:32:50;;;;;;;13.98;9.07;;;;;;;2.80;100.00;98856.34;5051507;28;20062;-56
2023/03/10 00:35:16;;;;;;;13.45;9.48;;;;;;;2.75;100.00;98864.34;5050851;28;20420;-54
2023/03/10 00:37:41;;;;;;;13.68;9.23;;;;;;;2.69;100.00;98867.13;5050651;28;20059;-55
2023/03/10 00:40:13;;;;;;;15.05;10.27;;;;;;;2.68;100.00;98868.00;5051673;28;20102;-57
2023/03/10 00:42:40;;;;;;;15.57;9.75;;;;;;;2.72;100.00;98860.97;5050490;28;20048;-57
2023/03/10 00:45:06;;;;;;;11.52;8.65;;;;;;;2.63;100.00;98855.19;5050001;28;20020;-55
2023/03/10 00:47:31;;;;;;;13.13;9.15;;;;;;;2.60;100.00;98857.03;5064859;28;20119;-55
2023/03/10 00:49:57;;;;;;;13.20;9.23;;;;;;;2.67;100.00;98858.53;5068496;28;20032;-55
2023/03/10 00:52:22;;;;;;;12.82;8.95;;;;;;;2.71;100.00;98854.09;5049534;28;20052;-58
2023/03/10 00:54:47;;;;;;;15.48;10.60;;;;;;;2.62;100.00;98855.25;5050581;28;20021;-53
2023/03/10 00:57:13;;;;;;;13.35;9.68;;;;;;;2.56;100.00;98863.25;5048371;28;20096;-54
2023/03/10 00:59:38;;;;;;;16.60;10.15;;;;;;;2.74;100.00;98847.00;5030862;28;20433;-55
2023/03/10 01:02:04;;;;;;;15.95;9.77;;;;;;;2.98;100.00;98848.84;5047363;28;20033;-54
2023/03/10 01:04:29;;;;;;;14.10;9.23;;;;;;;2.96;100.00;98842.84;5050283;28;20588;-55
2023/03/10 01:06:54;;;;;;;12.75;9.30;;;;;;;2.97;100.00;98842.78;5040948;28;20102;-57
2023/03/10 01:09:20;;;;;;;12.27;9.18;;;;;;;3.08;100.00;98834.59;5029700;28;20057;-55
2023/03/10 01:11:45;;;;;;;13.85;9.88;;;;;;;3.10;100.00;98824.16;5029169;28;20474;-54
2023/03/10 01:14:12;;;;;;;12.23;8.60;;;;;;;3.01;100.00;98831.34;5029584;28;20026;-53
2023/03/10 01:16:38;;;;;;;11.40;8.02;;;;;;;2.99;100.00;98822.78;5029808;28;20037;-57
2023/03/10 01:19:03;;;;;;;12.48;9.05;;;;;;;2.96;100.00;98822.88;5029931;28;20022;-54
2023/03/10 01:21:31;;;;;;;12.10;8.65;;;;;;;2.93;100.00;98824.72;5030098;28;20067;-57
2023/03/10 01:23:57;;;;;;;12.10;8.60;;;;;;;2.85;100.00;98820.66;5030003;28;20041;-56
2023/03/10 01:26:22;;;;;;;13.88;9.02;;;;;;;2.94;100.00;98819.47;5049080;28;20039;-54
2023/03/10 01:28:48;;;;;;;10.43;8.25;;;;;;;2.98;100.00;98815.84;5050029;28;20488;-53
2023/03/10 01:31:14;;;;;;;10.77;8.27;;;;;;;2.82;100.00;98818.16;5048585;28;20016;-57
2023/03/10 01:33:40;;;;;;;11.30;8.63;;;;;;;2.91;100.00;98811.78;5048414;28;20427;-56
2023/03/10 01:36:09;;;;;;;11.43;8.02;;;;;;;2.84;100.00;98818.09;5031991;28;20483;-56
2023/03/10 01:38:35;;;;;;;12.10;8.50;;;;;;;2.86;100.00;98816.31;5050185;28;20025;-54
2023/03/10 01:41:00;;;;;;;11.38;9.35;;;;;;;2.95;100.00;98808.16;5048990;28;20033;-56
2023/03/10 01:43:29;;;;;;;11.70;8.68;;;;;;;3.01;100.00;98807.94;5049262;28;20460;-54
2023/03/10 01:46:00;;;;;;;10.47;8.47;;;;;;;3.07;100.00;98808.63;5046170;28;20023;-57
2023/03/10 01:48:27;;;;;;;12.57;8.82;;;;;;;2.88;100.00;98797.13;5029661;28;20033;-56
2023/03/10 01:50:54;;;;;;;11.93;9.20;;;;;;;2.89;100.00;98791.00;5029462;28;20032;-55
2023/03/10 01:53:21;;;;;;;13.13;8.55;;;;;;;2.96;100.00;98793.41;5035074;28;20050;-58
2023/03/10 01:56:00;;;;;;;11.23;8.15;;;;;;;2.90;100.00;98791.88;5048569;28;20086;-56
2023/03/10 01:58:29;;;;;;;10.15;8.48;;;;;;;2.93;100.00;98786.56;5047726;28;20025;-55
2023/03/10 02:00:55;;;;;;;10.98;8.35;;;;;;;2.95;100.00;98784.72;5036061;28;20116;-56
2023/03/10 02:03:22;;;;;;;12.23;8.60;;;;;;;2.98;100.00;98792.44;5029669;28;20113;-55
2023/03/10 02:05:50;;;;;;;12.18;8.32;;;;;;;3.01;100.00;98787.13;4995171;28;20033;-56
2023/03/10 02:08:15;;;;;;;12.65;9.30;;;;;;;2.97;100.00;98787.28;5056875;28;20032;-56
2023/03/10 02:10:41;;;;;;;11.80;9.00;;;;;;;2.95;100.00;98771.72;5069237;28;20581;-54
2023/03/10 02:13:06;;;;;;;12.27;8.80;;;;;;;2.93;100.00;98776.16;5047455;28;20021;-56
2023/03/10 02:15:33;;;;;;;11.68;8.60;;;;;;;2.87;100.00;98760.75;5048953;28;20025;-57
2023/03/10 02:17:59;;;;;;;13.88;9.52;;;;;;;2.84;100.00;98760.88;5031100;28;20131;-55
2023/03/10 02:20:28;;;;;;;12.73;9.02;;;;;;;2.79;100.00;98766.22;5024843;28;20021;-55
2023/03/10 02:22:53;;;;;;;15.75;9.95;;;;;;;2.80;100.00;98754.91;5011170;28;20029;-54
2023/03/10 02:25:33;;;;;;;12.73;9.18;;;;;;;2.96;100.00;98754.38;5010518;28;20105;-56
2023/03/10 02:27:59;;;;;;;11.30;8.43;;;;;;;2.94;100.00;98746.63;5018887;28;20386;-55
2023/03/10 02:30:42;;;;;;;13.18;9.18;;;;;;;3.00;100.00;98741.19;5028427;28;20021;-54
2023/03/10 02:33:17;;;;;;;11.82;9.10;;;;;;;2.93;100.00;98744.94;5011343;28;20030;-55
2023/03/10 02:35:43;;;;;;;12.40;8.65;;;;;;;2.86;100.00;98735.66;5042039;28;20035;-56
2023/03/10 02:38:08;;;;;;;12.95;9.02;;;;;;;2.85;100.00;98733.94;5048655;28;20025;-55
2023/03/10 02:40:48;;;;;;;13.30;9.35;;;;;;;2.94;100.00;98728.41;5046993;28;20029;-55
2023/03/10 02:43:17;;;;;;;;;;;;;;;2.99;100.00;98736.06;5029291;28;20060;-54
2023/03/10 02:45:43;;;;;;;;;;;;;;;2.93;100.00;98738.88;5011745;28;19966;-52
2023/03/10 02:48:11;;;;;;;12.05;7.78;;;;;;;2.84;100.00;98745.25;5061867;28;20117;-55
2023/03/10 02:50:37;;;;;;;10.48;7.82;;;;;;;2.82;100.00;98744.44;5031342;28;20033;-56
2023/03/10 02:53:07;;;;;;;11.65;8.57;;;;;;;2.84;100.00;98742.66;5047945;28;20021;-56
2023/03/10 02:55:32;;;;;;;12.43;8.57;;;;;;;2.76;100.00;98740.31;5025820;28;20030;-55
2023/03/10 02:58:01;;;;;;;13.32;9.32;;;;;;;2.80;100.00;98733.28;5028391;28;20034;-55
2023/03/10 03:00:27;;;;;;;14.38;9.25;;;;;;;2.78;100.00;98728.97;5026825;28;20100;-54
2023/03/10 03:02:52;;;;;;;13.98;9.27;;;;;;;2.98;100.00;98726.56;5033243;28;20025;-52
2023/03/10 03:05:17;;;;;;;12.65;8.75;;;;;;;2.92;100.00;98738.00;5048447;28;20501;-54
2023/03/10 03:07:43;;;;;;;12.48;8.98;;;;;;;3.03;100.00;98735.03;5047589;28;20465;-51
2023/03/10 03:10:09;;;;;;;12.82;9.15;;;;;;;3.01;100.00;98736.84;5047427;28;20041;-56
2023/03/10 03:12:35;;;;;;;12.82;8.82;;;;;;;2.90;100.00;98734.63;5047500;28;20053;-49
2023/03/10 03:15:00;;;;;;;11.75;9.32;;;;;;;2.77;100.00;98735.06;5042426;28;20025;-51
2023/03/10 03:17:27;;;;;;;12.90;8.98;;;;;;;2.91;100.00;98736.31;5028076;28;20026;-55
2023/03/10 03:19:52;;;;;;;12.55;8.60;;;;;;;2.91;100.00;98738.91;5027714;28;20437;-56
2023/03/10 03:22:18;;;;;;;12.73;8.60;;;;;;;2.87;100.00;98735.59;5033656;28;20029;-54
2023/03/10 03:24:43;;;;;;;12.23;9.00;;;;;;;2.88;100.00;98733.84;5048468;28;20423;-54
2023/03/10 03:27:08;;;;;;;16.20;9.65;;;;;;;2.81;100.00;98729.75;5047181;28;20032;-57
2023/03/10 03:29:34;;;;;;;13.65;9.30;;;;;;;2.70;100.00;98732.72;5047700;28;20084;-55
2023/03/10 03:31:59;;;;;;;13.45;9.55;;;;;;;2.66;100.00;98729.41;5048164;28;20078;-55
2023/03/10 03:34:25;;;;;;;11.70;8.65;;;;;;;2.63;100.00;98729.50;5047359;28;20021;-54
2023/03/10 03:36:53;;;;;;;13.18;9.48;;;;;;;2.73;100.00;98723.06;5047405;28;20370;-56
2023/03/10 03:39:19;;;;;;;13.65;9.57;;;;;;;2.81;100.00;98721.94;5047559;28;20079;-56
2023/03/10 03:41:44;;;;;;;13.18;9.70;;;;;;;2.89;100.00;98718.16;5047836;28;20024;-54
2023/03/10 03:44:10;;;;;;;13.63;9.38;;;;;;;2.84;100.00;98729.66;5046556;28;20086;-54
2023/03/10 03:46:35;;;;;;;16.38;9.48;;;;;;;2.73;100.00;98722.22;5048067;28;20025;-56
2023/03/10 03:49:00;;;;;;;14.45;9.82;;;;;;;2.87;100.00;98724.34;5030562;28;20025;-56
2023/03/10 03:51:26;;;;;;;12.95;9.45;;;;;;;2.78;100.00;98713.38;5047052;28;20039;-50
2023/03/10 03:53:51;;;;;;;15.63;9.85;;;;;;;2.82;100.00;98708.88;5047824;28;20093;-56
2023/03/10 03:56:17;;;;;;;15.68;9.40;;;;;;;2.80;100.00;98708.09;5046532;28;20106;-56
2023/03/10 03:58:42;;;;;;;12.93;9.07;;;;;;;2.86;100.00;98704.44;5047161;28;20056;-55
2023/03/10 04:01:08;;;;;;;14.50;10.02;;;;;;;2.76;100.00;98712.56;5046299;28;20036;-52
2023/03/10 04:03:34;;;;;;;14.65;8.68;;;;;;;2.78;100.00;98713.38;5047254;28;20033;-56
2023/03/10 04:05:59;;;;;;;16.30;9.63;;;;;;;2.69;100.00;98718.03;5047938;28;20054;-53
2023/03/10 04:08:25;;;;;;;13.98;9.48;;;;;;;2.77;100.00;98724.66;5046627;28;20461;-55
2023/03/10 04:10:52;;;;;;;14.90;10.25;;;;;;;2.72;100.00;98724.00;5046498;28;20068;-54
2023/03/10 04:13:18;;;;;;;15.63;10.18;;;;;;;2.54;100.00;98717.69;5047609;28;20036;-54
2023/03/10 04:15:43;;;;;;;16.50;11.02;;;;;;;2.56;100.00;98715.03;5046230;28;20045;-56
2023/03/10 04:18:09;;;;;;;16.58;10.23;;;;;;;2.65;100.00;98709.50;5038319;28;20017;-55
2023/03/10 04:20:35;;;;;;;17.23;10.02;;;;;;;2.75;100.00;98694.41;5028471;28;20056;-53
2023/03/10 04:23:00;;;;;;;17.65;10.75;;;;;;;2.76;100.00;98689.16;5029742;28;20025;-54
2023/03/10 04:25:26;;;;;;;15.80;9.93;;;;;;;2.68;100.00;98693.78;5047818;28;20099;-56
2023/03/10 04:27:52;;;;;;;16.27;9.75;;;;;;;2.53;100.00;98706.44;5046909;28;20465;-55
2023/03/10 04:30:17;;;;;;;17.42;9.75;;;;;;;2.53;100.00;98711.63;5046715;28;20017;-54
2023/03/10 04:32:42;;;;;;;15.88;9.98;;;;;;;2.57;100.00;98711.53;5047144;28;20040;-53
2023/03/10 04:35:11;;;;;;;15.98;9.95;;;;;;;2.55;100.00;98718.50;5047924;28;20476;-51
2023/03/10 04:37:37;;;;;;;16.70;9.35;;;;;;;2.52;100.00;98720.34;5038624;28;20026;-55
2023/03/10 04:40:07;;;;;;;15.63;9.95;;;;;;;2.52;100.00;98717.75;5027742;28;20021;-54
2023/03/10 04:42:32;;;;;;;16.45;10.05;;;;;;;2.51;100.00;98708.25;5026743;28;20038;-53
2023/03/10 04:44:58;;;;;;;17.15;9.90;;;;;;;2.47;100.00;98705.81;5027049;28;20034;-55
2023/03/10 04:47:23;;;;;;;15.13;9.73;;;;;;;2.34;100.00;98707.97;5028899;28;20481;-55
2023/03/10 04:49:48;;;;;;;16.20;10.00;;;;;;;2.39;100.00;98706.06;5050341;28;20107;-55
2023/03/10 04:52:14;;;;;;;16.25;10.10;;;;;;;2.39;100.00;98700.88;5053291;28;20060;-55
2023/03/10 04:54:40;;;;;;;18.48;9.68;;;;;;;2.53;100.00;98708.19;5070573;28;20103;-55
2023/03/10 04:57:05;;;;;;;13.38;8.77;;;;;;;2.60;100.00;98714.88;5061128;28;20055;-57
2023/03/10 04:59:31;;;;;;;14.05;9.43;;;;;;;2.67;100.00;98712.06;5070288;28;20476;-54
2023/03/10 05:01:56;;;;;;;13.05;9.25;;;;;;;2.86;100.00;98707.03;5070558;28;20020;-55
2023/03/10 05:04:21;;;;;;;15.25;9.70;;;;;;;2.84;100.00;98694.09;5021848;28;20060;-55
2023/03/10 05:06:50;;;;;;;13.13;9.35;;;;;;;3.02;100.00;98692.56;5030183;28;20061;-58
2023/03/10 05:09:16;;;;;;;14.77;9.02;;;;;;;3.02;100.00;98697.78;5029333;28;20060;-55
2023/03/10 05:11:41;;;;;;;15.93;9.23;;;;;;;2.93;100.00;98692.03;5046644;28;20634;-56
2023/03/10 05:14:06;;;;;;;13.98;9.18;;;;;;;3.01;100.00;98690.03;5050080;28;20484;-54
2023/03/10 05:16:32;;;;;;;13.43;8.23;;;;;;;2.98;100.00;98685.75;5050112;28;20021;-57
2023/03/10 05:18:57;;;;;;;14.43;8.80;;;;;;;2.99;100.00;98687.47;5032175;28;20851;-57
2023/03/10 05:21:23;;;;;;;13.13;8.70;;;;;;;2.98;100.00;98679.72;5030435;28;20021;-55
2023/03/10 05:23:48;;;;;;;13.23;8.70;;;;;;;2.69;100.00;98673.81;5030442;28;20411;-58
2023/03/10 05:26:14;;;;;;;16.00;9.50;;;;;;;2.72;100.00;98674.56;5050401;28;20027;-55
2023/03/10 05:28:40;;;;;;;18.63;9.45;;;;;;;2.92;100.00;98669.53;5048948;28;20033;-55
2023/03/10 05:31:11;;;;;;;15.15;9.13;;;;;;;2.88;100.00;98674.00;5049782;28;20032;-57
2023/03/10 05:33:36;;;;;;;12.70;7.75;;;;;;;2.51;100.00;98676.19;5050177;28;20064;-55
2023/03/10 05:36:10;;;;;;;14.60;8.85;;;;;;;2.48;100.00;98677.16;5041474;28;20152;-56
2023/03/10 05:38:36;;;;;;;14.98;8.48;;;;;;;2.73;100.00;98678.00;5030611;28;20053;-56
2023/03/10 05:41:04;;;;;;;13.40;7.60;;;;;;;2.79;100.00;98675.19;5018332;28;20024;-56
2023/03/10 05:43:29;;;;;;;17.92;8.50;;;;;;;2.85;100.00;98674.09;5049236;28;20497;-56
2023/03/10 05:45:56;;;;;;;14.90;7.53;;;;;;;3.09;100.00;98679.31;5043783;28;20026;-55
2023/03/10 05:48:22;;;;;;;19.33;8.48;;;;;;;3.03;100.00;98683.84;5030155;28;20667;-56
2023/03/10 05:51:05;;;;;;;12.55;7.38;;;;;;;3.09;100.00;98687.09;5029268;28;20525;-55
2023/03/10 05:53:32;;;;;;;14.98;8.50;;;;;;;2.96;100.00;98691.94;5028249;28;20021;-55
2023/03/10 05:55:57;;;;;;;15.65;8.85;;;;;;;2.74;100.00;98690.97;5012203;28;20028;-57
2023/03/10 05:58:24;;;;;;;16.48;9.00;;;;;;;2.84;100.00;98693.22;5028254;28;20018;-56
2023/03/10 06:00:50;;;;;;;16.15;8.23;;;;;;;2.76;100.00;98696.97;5029274;28;20026;-56
2023/03/10 06:03:16;;;;;;;16.70;8.32;;;;;;;2.65;100.00;98689.53;5029463;28;20075;-54
2023/03/10 06:05:41;;;;;;;19.40;8.57;;;;;;;2.62;100.00;98689.66;5028641;28;20028;-54
2023/03/10 06:08:06;;;;;;;13.52;7.72;;;;;;;2.66;100.00;98695.59;5015427;28;20052;-57
2023/03/10 06:10:32;;;;;;;16.90;8.25;;;;;;;2.63;100.00;98695.72;5031357;28;20481;-53
2023/03/10 06:12:57;;;;;;;15.20;8.57;;;;;;;2.69;100.00;98700.69;5048176;28;20629;-59
2023/03/10 06:15:23;;;;;;;15.70;8.38;;;;;;;2.59;100.00;98701.94;5048319;28;20115;-54
2023/03/10 06:17:48;;;;;;;15.95;8.05;;;;;;;2.63;100.00;98701.78;5049560;28;20112;-56
2023/03/10 06:20:14;;;;;;;14.57;8.35;;;;;;;2.55;100.00;98698.56;5040666;28;20057;-55
2023/03/10 06:22:39;;;;;;;12.52;8.35;;;;;;;2.75;100.00;98691.81;5042834;28;20032;-57
2023/03/10 06:25:05;;;;;;;15.07;7.75;;;;;;;2.93;100.00;98699.84;5013055;28;20030;-59
2023/03/10 06:27:31;;;;;;;12.60;7.72;;;;;;;3.04;100.00;98695.06;5038564;28;20481;-55
2023/03/10 06:29:56;;;;;;;12.85;7.35;;;;;;;3.07;100.00;98691.53;5030290;28;20474;-55
2023/03/10 06:32:22;;;;;;;11.45;7.13;;;;;;;2.99;100.00;98687.47;5029076;28;20041;-57
2023/03/10 06:34:47;;;;;;;14.18;7.38;;;;;;;3.32;100.00;98685.38;5041135;28;20033;-56
2023/03/10 06:37:12;;;;;;;12.85;7.40;;;;;;;3.24;100.00;98688.28;5041339;28;20024;-51
2023/03/10 06:39:39;;;;;;;13.18;7.50;;;;;;;3.25;100.00;98692.59;5049248;28;20457;-56
2023/03/10 06:42:04;;;;;;;13.25;7.32;;;;;;;3.34;100.00;98687.00;5032423;28;20032;-53
2023/03/10 06:44:30;;;;;;;14.77;7.05;;;;;;;2.84;100.00;98693.22;5026407;28;20025;-56
2023/03/10 06:46:55;;;;;;;14.95;7.07;;;;;;;2.76;100.00;98702.16;5027729;28;20056;-56
2023/03/10 06:49:21;;;;;;;12.40;6.97;;;;;;;2.70;100.00;98696.31;5027401;28;20021;-54
2023/03/10 06:51:46;;;;;;;12.10;6.60;;;;;;;2.74;100.00;98695.31;5030073;28;20375;-55
2023/03/10 06:54:12;;;;;;;11.18;6.60;;;;;;;2.60;100.00;98701.00;5052759;28;20169;-55
2023/03/10 06:56:37;;;;;;;16.88;6.75;;;;;;;2.64;100.00;98700.00;5048246;28;20036;-57
2023/03/10 06:59:02;;;;;;;13.10;6.38;;;;;;;2.73;100.00;98694.47;5028421;28;20025;-54
2023/03/10 07:01:30;;;;;;;10.45;6.35;;;;;;;2.77;100.00;98698.66;5033138;28;20480;-51
2023/03/10 07:03:57;;;;;;;12.10;6.38;;;;;;;2.82;100.00;98701.09;5031067;28;20032;-53
2023/03/10 07:06:23;;;;;;;11.63;6.15;;;;;;;2.88;100.00;98695.66;5029241;28;20025;-53
2023/03/10 07:08:49;;;;;;;10.88;6.10;;;;;;;2.94;100.00;98705.00;5029452;28;20029;-56
2023/03/10 07:11:14;;;;;;;10.50;6.00;;;;;;;3.00;100.00;98704.78;5028355;28;20037;-55
2023/03/10 07:13:40;;;;;;;9.20;6.05;;;;;;;2.99;100.00;98702.22;5029525;28;20038;-56
2023/03/10 07:16:06;;;;;;;10.82;6.00;;;;;;;3.15;100.00;98707.69;5029964;28;20056;-52
2023/03/10 07:18:31;;;;;;;8.82;5.22;;;;;;;3.29;100.00;98705.41;5030543;28;20037;-53
2023/03/10 07:20:57;;;;;;;9.05;6.05;;;;;;;3.14;100.00;98703.41;5025916;28;20021;-53
2023/03/10 07:23:23;;;;;;;11.32;6.15;;;;;;;2.99;100.00;98708.28;5036847;28;20039;-54
2023/03/10 07:25:53;;;;;;;8.48;5.43;;;;;;;2.88;100.00;98705.22;5046368;28;20037;-56
2023/03/10 07:28:18;;;;;;;10.52;6.70;;;;;;;3.39;100.00;98705.94;5043188;28;20168;-53
2023/03/10 07:30:43;;;;;;;9.95;5.55;;;;;;;3.15;100.00;98710.31;5047025;28;20104;-55
2023/03/10 07:33:09;;;;;;;9.38;5.38;;;;;;;3.57;100.00;98703.50;5046113;28;20047;-56
2023/03/10 07:35:35;;;;;;;10.05;5.10;;;;;;;3.69;100.00;98707.38;5045935;28;20021;-54
2023/03/10 07:38:00;;;;;;;7.75;4.32;;;;;;;3.82;100.00;98702.50;5031480;28;20030;-54
2023/03/10 07:40:26;;;;;;;8.38;4.80;;;;;;;3.32;100.00;98704.47;5042043;28;20229;-56
2023/03/10 07:42:53;;;;;;;7.72;4.97;;;;;;;3.06;100.00;98706.28;5045389;28;20032;-55
2023/03/10 07:45:18;;;;;;;6.95;4.88;;;;;;;2.99;100.00;98717.84;5037505;28;20025;-52
2023/03/10 07:47:44;;;;;;;7.45;4.53;;;;;;;2.95;100.00;98714.50;5036445;28;20362;-56
2023/03/10 07:50:10;;;;;;;6.70;4.65;;;;;;;3.01;100.00;98718.63;5030459;28;20364;-55
2023/03/10 07:52:35;;;;;;;7.60;4.55;;;;;;;2.88;100.00;98718.22;5027404;28;20330;-55
2023/03/10 07:55:00;;;;;;;7.82;4.55;;;;;;;2.93;100.00;98721.53;5025869;28;20581;-56
2023/03/10 07:57:27;;;;;;;7.03;4.43;;;;;;;2.68;100.00;98724.97;5032439;28;20029;-55
2023/03/10 07:59:52;;;;;;;7.45;4.13;;;;;;;2.86;100.00;98723.47;5047156;28;20032;-58
2023/03/10 08:02:17;;;;;;;8.85;5.10;;;;;;;3.27;100.00;98725.47;5045277;28;20109;-53
2023/03/10 08:04:43;;;;;;;5.45;4.40;;;;;;;3.58;100.00;98725.19;5041179;28;20397;-57
2023/03/10 08:07:08;;;;;;;5.38;4.38;;;;;;;3.67;100.00;98727.41;5028047;28;20033;-61
2023/03/10 08:09:34;;;;;;;4.47;3.80;;;;;;;3.88;100.00;98727.47;5030749;28;20049;-54
2023/03/10 08:12:00;;;;;;;6.47;4.20;;;;;;;3.89;100.00;98734.41;5026682;28;20349;-55
2023/03/10 08:14:27;;;;;;;5.72;4.53;;;;;;;3.35;100.00;98739.94;5025811;28;20037;-55
2023/03/10 08:16:55;;;;;;;3.78;3.38;;;;;;;3.32;100.00;98735.72;5042320;28;20384;-57
2023/03/10 08:19:20;;;;;;;6.03;3.63;;;;;;;3.18;100.00;98733.63;5027419;28;20036;-53
2023/03/10 08:21:46;;;;;;;4.55;3.55;;;;;;;3.09;100.00;98737.41;5027074;28;20472;-55
2023/03/10 08:24:11;;;;;;;6.72;4.30;;;;;;;2.89;100.00;98746.78;5046194;28;20356;-54
2023/03/10 08:26:36;;;;;;;4.63;4.10;;;;;;;2.91;100.00;98744.13;5034731;28;20108;-56
2023/03/10 08:29:02;;;;;;;5.50;4.03;;;;;;;2.80;100.00;98738.47;5029579;28;20021;-55
2023/03/10 08:31:27;;;;;;;4.78;3.85;;;;;;;2.88;100.00;98733.84;5029822;28;20033;-56
2023/03/10 08:33:56;;;;;;;4.72;3.78;;;;;;;2.89;100.00;98735.56;5030621;28;20458;-60
2023/03/10 08:36:24;;;;;;;7.75;4.07;;;;;;;2.99;100.00;98729.09;5029844;28;20036;-57
2023/03/10 08:38:53;;;;;;;6.78;3.90;;;;;;;2.88;100.00;98733.84;5030255;28;20108;-57
2023/03/10 08:41:20;;;;;;;4.45;2.97;;;;;;;2.99;100.00;98730.84;5029978;28;20025;-57
2023/03/10 08:43:46;;;;;;;4.00;3.58;;;;;;;3.03;100.00;98724.63;5048232;28;20031;-55
2023/03/10 08:46:11;;;;;;;4.25;3.53;;;;;;;3.08;100.00;98732.25;5048003;28;20397;-49
2023/03/10 08:48:37;;;;;;;3.70;3.33;;;;;;;3.08;100.00;98733.13;5049149;28;20039;-57
2023/03/10 08:51:03;;;;;;;3.50;3.20;;;;;;;2.99;100.00;98736.91;5039765;28;20033;-55
2023/03/10 08:53:28;;;;;;;3.50;2.67;;;;;;;3.15;100.00;98738.94;5032750;28;20038;-57
2023/03/10 08:55:53;;;;;;;4.45;3.10;;;;;;;2.97;100.00;98750.84;5035381;28;20049;-56
2023/03/10 08:58:19;;;;;;;3.67;3.17;;;;;;;3.06;100.00;98744.47;5050075;28;20021;-54
2023/03/10 09:00:44;;;;;;;3.92;3.28;;;;;;;2.97;100.00;98751.72;5033627;28;20485;-55
2023/03/10 09:03:10;;;;;;;3.75;3.03;;;;;;;2.98;100.00;98747.38;5036988;28;20031;-56
2023/03/10 09:05:36;;;;;;;3.90;2.90;;;;;;;2.87;100.00;98751.22;5048343;28;20104;-56
2023/03/10 09:08:02;;;;;;;3.25;2.95;;;;;;;2.93;100.00;98755.34;5045981;28;20508;-55
2023/03/10 09:10:27;;;;;;;3.40;3.10;;;;;;;2.93;100.00;98755.34;5030516;28;20049;-55
2023/03/10 09:12:53;;;;;;;3.63;3.13;;;;;;;2.95;100.00;98763.09;5028329;28;20325;-52
2023/03/10 09:15:18;;;;;;;3.63;3.00;;;;;;;2.76;100.00;98764.59;5028076;28;20060;-54
2023/03/10 09:17:44;;;;;;;3.53;2.88;;;;;;;2.78;100.00;98761.94;5031148;28;20087;-56
2023/03/10 09:20:09;;;;;;;4.97;2.75;;;;;;;2.82;100.00;98762.66;5029738;28;20048;-55
2023/03/10 09:22:35;;;;;;;3.67;3.00;;;;;;;2.84;100.00;98760.88;5028590;28;20470;-54
2023/03/10 09:25:00;;;;;;;3.35;3.05;;;;;;;2.90;100.00;98763.25;5029393;28;20025;-54
2023/03/10 09:27:25;;;;;;;4.38;2.50;;;;;;;2.78;100.00;98762.78;5033232;28;20490;-55
2023/03/10 09:29:51;;;;;;;3.15;2.75;;;;;;;2.84;100.00;98766.06;5029353;28;20374;-54
2023/03/10 09:32:16;;;;;;;3.30;2.60;;;;;;;2.87;100.00;98760.75;5027668;28;20727;-52
2023/03/10 09:34:41;;;;;;;2.95;2.50;;;;;;;3.08;100.00;98771.28;5029328;28;20025;-56
2023/03/10 09:37:07;;;;;;;4.45;2.70;;;;;;;3.13;100.00;98777.19;5034143;28;20041;-58
2023/03/10 09:39:32;;;;;;;2.30;2.10;;;;;;;3.28;100.00;98768.81;5036336;28;20035;-53
2023/03/10 09:42:19;;;;;;;2.80;2.05;;;;;;;3.26;100.00;98780.19;5048449;28;20065;-54
2023/03/10 09:45:16;;;;;;;2.70;2.40;;;;;;;3.26;100.00;98791.47;5040085;28;20025;-58
2023/03/10 09:48:09;;;;;;;2.72;2.10;;;;;;;3.39;100.00;98785.78;5030955;28;20029;-52
2023/03/10 09:50:45;;;;;;;2.55;2.28;;;;;;;3.61;100.00;98795.41;5031992;28;20029;-52
2023/03/10 09:53:48;;;;;;;2.00;1.90;;;;;;;4.00;100.00;98797.34;5023071;28;20118;-54
2023/03/10 09:56:16;;;;;;;7.85;1.90;;;;;;;4.09;100.00;98798.72;5031473;28;20037;-55
2023/03/10 09:58:47;;;;;;;1.70;1.60;;;;;;;3.91;100.00;98795.94;5029413;28;20031;-54
2023/03/10 10:01:24;;;;;;;1.58;1.48;;;;;;;3.90;100.00;98803.84;5048291;28;20024;-54
2023/03/10 10:04:04;;;;;;;1.75;1.65;;;;;;;3.99;100.00;98792.19;5029165;28;20021;-56
2023/03/10 10:06:33;;;;;;;2.42;2.00;;;;;;;3.91;100.00;98815.94;5028453;28;20061;-55
2023/03/10 10:09:02;;;;;;;1.80;1.63;;;;;;;3.72;100.00;98821.88;5028555;28;20164;-56
2023/03/10 10:11:27;;;;;;;1.85;1.73;;;;;;;3.89;100.00;98817.78;5029121;28;20072;-53
2023/03/10 10:14:04;;;;;;;1.90;1.63;;;;;;;3.71;100.00;98817.59;5009389;28;20389;-55
2023/03/10 10:16:39;;;;;;;2.17;1.80;;;;;;;3.85;100.00;98816.22;5027882;28;20037;-55
2023/03/10 10:19:15;;;;;;;2.22;2.03;;;;;;;3.70;100.00;98817.63;5035046;28;20486;-53
2023/03/10 10:21:47;;;;;;;2.05;1.85;;;;;;;3.75;100.00;98813.94;5010910;28;20104;-54
2023/03/10 10:24:13;;;;;;;2.40;2.20;;;;;;;3.75;100.00;98819.16;5036421;28;20036;-54
2023/03/10 10:26:39;;;;;;;2.92;2.10;;;;;;;3.71;100.00;98825.41;5061907;28;20501;-57
2023/03/10 10:29:27;;;;;;;2.60;2.38;;;;;;;3.84;100.00;98830.97;5029186;28;20036;-57
2023/03/10 10:32:03;;;;;;;5.60;2.40;;;;;;;3.95;100.00;98827.97;5025443;28;20075;-56
2023/03/10 10:34:30;;;;;;;2.60;2.08;;;;;;;3.92;100.00;98833.28;5045953;28;20408;-55
2023/03/10 10:36:56;;;;;;;2.72;2.38;;;;;;;3.79;100.00;98828.53;5042851;28;20025;-52
2023/03/10 10:39:32;;;;;;;3.20;2.50;;;;;;;3.94;100.00;98826.25;5045448;28;20433;-52
2023/03/10 10:42:33;;;;;;;2.70;2.22;;;;;;;3.69;100.00;98824.59;5023889;28;20040;-57
2023/03/10 10:45:02;;;;;;;3.30;2.95;;;;;;;3.74;100.00;98832.25;4946246;28;20041;-54
2023/03/10 10:47:34;;;;;;;;;;;;;;;3.72;100.00;98826.22;5029327;28;20060;-51
2023/03/10 10:50:17;;;;;;;4.10;2.38;;;;;;;3.77;100.00;98814.72;5046914;28;20254;-57
2023/03/10 10:52:47;;;;;;;4.93;3.05;;;;;;;3.92;100.00;98828.09;5064802;28;20078;-55
2023/03/10 10:55:33;;;;;;;3.88;2.78;;;;;;;3.94;100.00;98836.66;5036361;28;20151;-55
2023/03/10 10:58:02;;;;;;;2.92;2.63;;;;;;;3.89;100.00;98846.44;5008622;28;20037;-55
2023/03/10 11:00:33;;;;;;;9.65;3.00;;;;;;;3.79;100.00;98848.53;5013906;28;20104;-58
2023/03/10 11:02:59;;;;;;;4.72;3.13;;;;;;;3.70;100.00;98854.94;5031230;28;20057;-52
2023/03/10 11:05:35;;;;;;;3.08;2.78;;;;;;;3.69;100.00;98862.81;5025443;28;20026;-52
2023/03/10 11:08:16;;;;;;;4.50;3.00;;;;;;;3.68;100.00;98859.38;5026321;28;20025;-56
2023/03/10 11:10:43;;;;;;;6.10;2.88;;;;;;;3.61;100.00;98866.56;5031236;28;20068;-52
2023/03/10 11:13:22;;;;;;;2.42;2.22;;;;;;;3.34;100.00;98873.63;5031311;28;20049;-54
2023/03/10 11:15:56;;;;;;;2.63;2.43;;;;;;;2.86;100.00;98878.72;5010464;28;20033;-56
2023/03/10 11:18:33;;;;;;;2.50;2.30;;;;;;;2.82;100.00;98883.19;5027251;28;20033;-56
2023/03/10 11:21:01;;;;;;;2.85;2.20;;;;;;;2.95;100.00;98877.56;5014428;28;20041;-53
2023/03/10 11:23:32;;;;;;;3.47;2.20;;;;;;;2.76;100.00;98875.56;5034861;28;20515;-54
2023/03/10 11:26:03;;;;;;;4.38;2.17;;;;;;;2.92;100.00;98875.91;5029488;28;20029;-53
2023/03/10 11:28:56;;;;;;;3.55;2.03;;;;;;;2.88;100.00;98867.38;5046907;28;20037;-52
2023/03/10 11:31:43;;;;;;;2.08;1.83;;;;;;;2.69;100.00;98867.13;5014142;28;20060;-51